METAR Principali Aeroporti Italiani

 

LIPF - Ferrara, It
Distance from station: 8 km
Updated: Mon, 16-Jul-2018 7:55pm CEST
NOT Current
Few Clouds
Few Clouds
 Wind from SW
Wind: SW 2 mph , 4 km/h
Temperature: 63°F , 17°C
Dew Point: 61°F , 16°C
Humidity: 94%
Barometer: 29.83 inHg , 1010 hPa
Clouds: Few Clouds
Visibility: 6 miles , 10 km
Cloud details: Few Clouds 7000 ft
2018/07/16 17:55 LIPF 161755Z 23002KT 9999 FEW070 17/16 Q1010
LIPE - Bologna Borgo Panigale, It
Distance from station: 46 km
Updated: Tue, 17-Jul-2018 5:20am CEST
Few Clouds
Few Clouds
 Wind from SW
Wind: SW 6 mph , 9 km/h
Temperature: 64°F , 18°C
Dew Point: 61°F , 16°C
Humidity: 88%
Barometer: 29.88 inHg , 1012 hPa
Clouds: Few Clouds
Visibility: 6 miles , 10 km
Cloud details: Few Clouds 7000 ft
2018/07/17 03:20 LIPE 170320Z 23005KT 9999 FEW070 18/16 Q1012
LIMF - Torino Caselle, It
Distance from station: 320 km
Updated: Tue, 17-Jul-2018 5:20am CEST
Clear
Clear
 Wind from NNW
Wind: NNW 3 mph , 6 km/h
Temperature: 61°F , 16°C
Dew Point: 59°F , 15°C
Humidity: 94%
Barometer: 29.88 inHg , 1012 hPa
Summary: Clear
Visibility: greater than 7 miles , 10 km
2018/07/17 03:20 LIMF 170320Z 34003KT CAVOK 16/15 Q1012
 
LIML - Milano Malpensa, It
Distance from station: 249 km
Updated: Tue, 17-Jul-2018 5:20am CEST
Partly Cloudy
Partly Cloudy
 Wind from varies
Wind: varies 1 mph , 2 km/h
Temperature: 66°F , 19°C
Dew Point: 64°F , 18°C
Humidity: 94%
Barometer: 29.85 inHg , 1011 hPa
Clouds: Partly Cloudy
Visibility: 5 miles , 8 km
2018/07/17 03:20 LIML 170320Z VRB01KT 8000 NSC 19/18 Q1011 NOSIG
LIME - Bergamo Orio al Serio, It
Distance from station: 181 km
Updated: Tue, 17-Jul-2018 5:20am CEST
Few Clouds
Few Clouds
 Wind from N
Wind: N 6 mph , 9 km/h
Temperature: 61°F , 16°C
Dew Point: 59°F , 15°C
Humidity: 94%
Barometer: 29.85 inHg , 1011 hPa
Clouds: Few Clouds
Visibility: 6 miles , 10 km
Cloud details: Few Clouds 2500 ft
2018/07/17 03:20 LIME 170320Z 01005KT 9999 FEW025 16/15 Q1011 NOSIG
LIPZ - Venezia Tessera, It
Distance from station: 93 km
Updated: Tue, 17-Jul-2018 5:20am CEST
Mist, Partly cloudy
Mist, Partly cloudy
 Wind from W
Wind: W 6 mph , 9 km/h
Temperature: 68°F , 20°C
Dew Point: 66°F , 19°C
Humidity: 94%
Barometer: 29.8 inHg , 1009 hPa
Summary: Mist
Clouds: Partly Cloudy
Visibility: 3 miles , 5 km
2018/07/17 03:20 LIPZ 170320Z 27005KT 250V310 5000 BR NSC 20/19 Q1009 NOSIG
 
LIVT - Trieste, It
Distance from station: 179 km
Updated: Tue, 17-Jul-2018 4:55am CEST
Partly Cloudy
Partly Cloudy
 Wind from NE
Wind: NE 5 mph , 7 km/h
Temperature: 70°F , 21°C
Dew Point: 66°F , 19°C
Humidity: 88%
Barometer: 29.8 inHg , 1009 hPa
Clouds: Partly Cloudy
Visibility: 6 miles , 10 km
Cloud details: Partly Cloudy 3000 ft
2018/07/17 02:55 LIVT 170255Z 05004KT 9999 SCT030 21/19 Q1009 RMK BKN SCT080 QUK / QUL / VIS MAR 20 KM VIS MIN 9999
LIMJ - Genova, It
Distance from station: 229 km
Updated: Tue, 17-Jul-2018 5:20am CEST
Clear
Clear
 Wind from NE
Wind: NE 6 mph , 9 km/h
Temperature: 72°F , 22°C
Dew Point: 64°F , 18°C
Humidity: 78%
Barometer: 29.83 inHg , 1010 hPa
Summary: Clear
Visibility: greater than 7 miles , 10 km
2018/07/17 03:20 LIMJ 170320Z 05005KT 010V100 CAVOK 22/18 Q1010
LIRQ - Firenze Amerigo Vespucci, It
Distance from station: 119 km
Updated: Tue, 17-Jul-2018 5:20am CEST
Clear
Clear
 Wind from varies
Wind: varies 2 mph , 4 km/h
Temperature: 64°F , 18°C
Dew Point: 63°F , 17°C
Humidity: 94%
Barometer: 29.8 inHg , 1009 hPa
Summary: Clear
Visibility: greater than 7 miles , 10 km
2018/07/17 03:20 LIRQ 170320Z VRB02KT CAVOK 18/17 Q1009
 
LIPY - Ancona, It
Distance from station: 189 km
Updated: Mon, 16-Jul-2018 11:50pm CEST
NOT Current
Light thunderstorm, Rain, Mostly cloudy
Light thunderstorm, Rain, Mostly cloudy
 Wind from SSE
Wind: SSE 9 mph , 15 km/h
Temperature: 68°F , 20°C
Dew Point: 66°F , 19°C
Humidity: 94%
Barometer: 29.83 inHg , 1010 hPa
Summary: Light thunderstorm, Rain
Clouds: Mostly Cloudy
Visibility: 6 miles , 10 km
Cloud details: Few Clouds 1500 ft
Mostly Cloudy 5000 ft
2018/07/16 21:50 LIPY 162150Z 16008KT 130V200 9999 -TSRA FEW015CB BKN050 20/19 Q1010 RERA
LIBP - Pescara, It
Distance from station: 333 km
Updated: Tue, 17-Jul-2018 5:08am CEST
Rain, Overcast
Rain, Overcast
 Wind from S
Wind: S 3 mph , 6 km/h
Temperature: 70°F , 21°C
Dew Point: 66°F , 19°C
Humidity: 88%
Barometer: 29.83 inHg , 1010 hPa
Summary: Rain
Clouds: Overcast
Visibility: 6 miles , 10 km
Cloud details: Overcast 6400 ft
2018/07/17 03:08 LIBP 170308Z AUTO 17003KT 130V200 9999 RA OVC064/// 21/19 Q1010
LIRF - Roma-Fiumicino, It
Distance from station: km
Updated: Tue, 17-Jul-2018 5:20am CEST
Partly Cloudy
Partly Cloudy
 Wind from ENE
Wind: ENE 5 mph , 7 km/h
Temperature: 70°F , 21°C
Dew Point: 68°F , 20°C
Humidity: 94%
Barometer: 29.77 inHg , 1008 hPa
Clouds: Partly Cloudy
Visibility: 6 miles , 10 km
Cloud details: Partly Cloudy 2000 ft
2018/07/17 03:20 LIRF 170320Z 07004KT 9999 SCT020 21/20 Q1008 NOSIG
 
LIRN - Napoli Capodichino, It
Distance from station: km
Updated: Tue, 17-Jul-2018 5:20am CEST
Mostly Cloudy
Mostly Cloudy
 Wind from varies
Wind: varies 2 mph , 4 km/h
Temperature: 70°F , 21°C
Dew Point: 70°F , 21°C
Humidity: 100%
Barometer: 29.8 inHg , 1009 hPa
Clouds: Mostly Cloudy
Visibility: 5 miles , 8 km
Cloud details: Few Clouds 2500 ft
Mostly Cloudy 5000 ft
2018/07/17 03:20 LIRN 170320Z VRB02KT 8000 FEW025 BKN050 21/21 Q1009 NOSIG
LIBD - Bari Palese, It
Distance from station: km
Updated: Tue, 17-Jul-2018 5:20am CEST
Partly Cloudy
Partly Cloudy
 Wind from NNE
Wind: NNE 12 mph , 19 km/h
Temperature: 73°F , 23°C
Dew Point: 68°F , 20°C
Humidity: 83%
Barometer: 29.83 inHg , 1010 hPa
Clouds: Partly Cloudy
Visibility: 6 miles , 10 km
Cloud details: Partly Cloudy 1500 ft
2018/07/17 03:20 LIBD 170320Z 02010KT 9999 SCT015 23/20 Q1010
LIBG - Taranto Grottaglie, It
Distance from station: km
Updated: Mon, 16-Jul-2018 10:50pm CEST
NOT Current
Clear
Clear
 Wind from varies
Wind: varies 2 mph , 4 km/h
Temperature: 79°F , 26°C
Dew Point: 64°F , 18°C
Humidity: 61%
Barometer: 29.83 inHg , 1010 hPa
Summary: Clear
Visibility: greater than 7 miles , 10 km
2018/07/16 20:50 LIBG 162050Z VRB02KT CAVOK 26/18 Q1010
 
LICR - Reggio Calabria, It
Distance from station: km
Updated: Mon, 16-Jul-2018 11:50pm CEST
NOT Current
Clear
Clear
 Wind from ESE
Wind: ESE 6 mph , 9 km/h
Temperature: 77°F , 25°C
Dew Point: 73°F , 23°C
Humidity: 89%
Barometer: 29.88 inHg , 1012 hPa
Summary: Clear
Visibility: greater than 7 miles , 10 km
2018/07/16 21:50 LICR 162150Z 12005KT CAVOK 25/23 Q1012
LICJ - Palermo Punta Raisi, It
Distance from station: km
Updated: Tue, 17-Jul-2018 5:20am CEST
Few Clouds
Few Clouds
 Wind from WSW
Wind: WSW 17 mph , 28 km/h
Temperature: 79°F , 26°C
Dew Point: 70°F , 21°C
Humidity: 74%
Barometer: 29.91 inHg , 1013 hPa
Clouds: Few Clouds
Visibility: 6 miles , 10 km
Cloud details: Few Clouds 2500 ft
2018/07/17 03:20 LICJ 170320Z 24015KT 9999 FEW025 26/21 Q1013
LICC - Catania Fontanarossa, It
Distance from station: km
Updated: Tue, 17-Jul-2018 5:20am CEST
Clear
Clear
 Wind from W
Wind: W 14 mph , 22 km/h
Temperature: 77°F , 25°C
Dew Point: 63°F , 17°C
Humidity: 61%
Barometer: 29.85 inHg , 1011 hPa
Summary: Clear
Visibility: greater than 7 miles , 10 km
2018/07/17 03:20 LICC 170320Z 26012KT CAVOK 25/17 Q1011
 
LIEE - Cagliari Elmas, It
Distance from station: km
Updated: Tue, 17-Jul-2018 5:20am CEST
Clear
Clear
 Wind from WNW
Wind: WNW 10 mph , 17 km/h
Temperature: 75°F , 24°C
Dew Point: 63°F , 17°C
Humidity: 65%
Barometer: 29.91 inHg , 1013 hPa
Summary: Clear
Visibility: greater than 7 miles , 10 km
2018/07/17 03:20 LIEE 170320Z 30009KT CAVOK 24/17 Q1013
LIEO - Olbia, It
Distance from station: km
Updated: Tue, 17-Jul-2018 5:20am CEST
Few Clouds
Few Clouds
 Wind from WNW
Wind: WNW 10 mph , 17 km/h
Temperature: 73°F , 23°C
Dew Point: 64°F , 18°C
Humidity: 74%
Barometer: 29.85 inHg , 1011 hPa
Clouds: Few Clouds
Visibility: 6 miles , 10 km
Cloud details: Few Clouds 3000 ft
2018/07/17 03:20 LIEO 170320Z 30009KT 9999 FEW030 23/18 Q1011
LICG - Pantelleria, It
Distance from station: km
Updated: Mon, 16-Jul-2018 7:55pm CEST
NOT Current
Clear
Clear
 Wind from NE
Wind: NE 6 mph , 9 km/h
Temperature: 82°F , 28°C
Heat Index: 90°F , 32°C
Dew Point: 77°F , 25°C
Humidity: 84%
Barometer: 29.94 inHg , 1014 hPa
Summary: Clear
Visibility: greater than 7 miles , 10 km
2018/07/16 17:55 LICG 161755Z 04005KT CAVOK 28/25 Q1014

Metar display script from Saratoga-Weather.org